Paradox, Colorado
Current Conditions -  °F | °C
As of 10:35 PM on Saturday 25 Oct 2014 (Local Time) from KAIB Reporting Station
Overcast Overcast  
Wind Chill: 55°   Ceiling: 9500
Heat Index: 55°   Visibility: 10mi
Dew Point: 32°   Wind: 12mph
Humidity: 41%   Direction: 120°ESE
Pressure: 30.19"   Gusts: NA
Location:  38.37°N, 108.96°W
Report Text: KAIB 260435Z AUTO 12010KT 10SM OVC095 13/00 A3019 RMK AO2
Loading
Personal Weather Stations






























Interactive Weather Map
Tropical Storm Tracking
New forecast layout! Learn more

10-Day Weather Forecast

Advertisements
Track Severe Weather on mobile